»·PEaware :: N6818R KBFL-KPSP

N6818R :: KBFL-KPSP

FLIGHT INFORMATION

Flight Status: Arrived
Operator: Privately registered:
United States
More flights under this callsign
Pilot: John P. (31881)
Aircraft: BEECH AIRCRAFT SUPER KING AIR 350
(B350)
More flights by this aircraft type
Origin: KBFL Meadows
United States
Destination: KPSP Palm Springs Intl
United States
More flights between these airports :: More routes between these airports
Route: GLRNO SIZLR3
File this flight plan on PilotEdge
Remarks:
Altitude:
(Current/Filed)
25,000ft
Speed:
(Current/Filed)
311kts
Departed: 03-Jan-21 02:58 PM
Arrived: 03-Jan-21 04:05 PM
Distance/Time
Traveled:
158nm/1:07
Distance/Time
To Go:
Arrived

Flight Plot

Page will automatically refresh every two minutes.

Flight plan parsing failed; only flown route is shown


Map Options




Map Legend


Flown Route
Filed Route
Departure Airport
Arrival Airport
Navaid (VOR, NDB)
Fix

Horizontal Profiles

Position Reports

Time Latitude Longitude Heading Altitude Ground
Speed
03-Jan-21 14:39 0.000408 0.013975 0 5ft 0kts
03-Jan-21 14:40 35.430458 -119.048272 317 487ft 0kts
03-Jan-21 14:41 35.430458 -119.048272 317 486ft 0kts
03-Jan-21 14:42 35.430458 -119.048272 317 486ft 0kts
03-Jan-21 14:43 35.430458 -119.048272 317 486ft 0kts
03-Jan-21 14:44 35.430458 -119.048272 317 486ft 0kts
03-Jan-21 14:45 35.430458 -119.048272 317 486ft 0kts
03-Jan-21 14:46 35.430458 -119.048272 317 486ft 0kts
03-Jan-21 14:47 35.430458 -119.048272 317 486ft 0kts
03-Jan-21 14:48 35.430458 -119.048272 317 486ft 0kts
03-Jan-21 14:49 35.430458 -119.048272 317 486ft 0kts
03-Jan-21 14:50 35.430458 -119.048272 317 486ft 0kts
03-Jan-21 14:51 35.430458 -119.048272 317 486ft 0kts
03-Jan-21 14:52 35.430458 -119.048272 317 486ft 0kts
03-Jan-21 14:53 35.430462 -119.048276 317 486ft 1kts
03-Jan-21 14:54 35.429109 -119.048215 135 484ft 24kts
03-Jan-21 14:55 35.425721 -119.044809 233 473ft 0kts
03-Jan-21 14:56 35.425590 -119.045033 244 473ft 13kts
03-Jan-21 14:57 35.443346 -119.067017 316 583ft 169kts
03-Jan-21 14:58 35.474370 -119.106893 314 2764ft 180kts
03-Jan-21 14:59 35.516757 -119.161494 315 2984ft 239kts
03-Jan-21 15:00 35.562384 -119.220288 314 2996ft 238kts
03-Jan-21 15:01 35.608122 -119.279228 314 3008ft 238kts
03-Jan-21 15:02 35.631350 -119.342160 231 4724ft 174kts
03-Jan-21 15:03 35.595426 -119.329314 139 6681ft 153kts
03-Jan-21 15:04 35.564034 -119.292631 137 8235ft 159kts
03-Jan-21 15:05 35.532582 -119.253454 137 9932ft 166kts
03-Jan-21 15:06 35.500446 -119.210707 137 11976ft 174kts
03-Jan-21 15:07 35.463694 -119.160332 137 12939ft 239kts
03-Jan-21 15:08 35.412528 -119.093484 137 12994ft 286kts
03-Jan-21 15:09 35.359964 -119.025364 143 14881ft 233kts
03-Jan-21 15:10 35.315421 -118.982411 150 17626ft 196kts
03-Jan-21 15:11 35.274454 -118.934544 143 19504ft 209kts
03-Jan-21 15:12 35.233193 -118.882872 143 21398ft 215kts
03-Jan-21 15:13 35.189648 -118.831621 145 23221ft 220kts
03-Jan-21 15:14 35.145491 -118.777523 143 24939ft 235kts
03-Jan-21 15:15 35.092232 -118.712662 141 25268ft 303kts
03-Jan-21 15:16 35.027640 -118.634256 140 25281ft 344kts
03-Jan-21 15:17 34.958927 -118.551068 140 25301ft 351kts
03-Jan-21 15:18 34.889145 -118.466803 140 25274ft 355kts
03-Jan-21 15:19 34.818688 -118.381919 140 25242ft 356kts
03-Jan-21 15:20 34.752739 -118.292186 132 25241ft 360kts
03-Jan-21 15:21 34.690975 -118.197040 132 25237ft 345kts
03-Jan-21 15:23 34.637405 -118.114400 132 23632ft 315kts
03-Jan-21 15:24 34.584832 -118.030282 126 21979ft 325kts
03-Jan-21 15:25 34.540073 -117.929163 117 20483ft 346kts
03-Jan-21 15:26 34.498606 -117.827759 118 19025ft 343kts
03-Jan-21 15:27 34.456238 -117.725275 117 17686ft 331kts
03-Jan-21 15:28 34.415419 -117.624869 118 17075ft 333kts
03-Jan-21 15:29 34.374670 -117.525114 117 16572ft 329kts
03-Jan-21 15:30 34.334637 -117.427624 117 16108ft 325kts
03-Jan-21 15:31 34.294549 -117.331749 122 15990ft 314kts
03-Jan-21 15:32 34.251852 -117.239763 120 16015ft 313kts
03-Jan-21 15:33 34.209016 -117.148303 120 16014ft 311kts
03-Jan-21 15:34 34.166217 -117.057293 120 15998ft 316kts
03-Jan-21 15:35 34.122012 -116.963765 118 16050ft 324kts
03-Jan-21 15:36 34.078414 -116.870296 119 16000ft 310kts
03-Jan-21 15:50 34.063797 -116.838942 121 16019ft 342kts
03-Jan-21 15:51 34.063797 -116.838942 121 16019ft 342kts
03-Jan-21 15:52 34.033748 -116.780202 124 14465ft 271kts
03-Jan-21 15:53 33.998298 -116.701885 94 13168ft 283kts
03-Jan-21 15:54 33.989118 -116.606853 105 11668ft 285kts
03-Jan-21 15:55 33.952341 -116.527561 129 10745ft 268kts
03-Jan-21 15:56 33.903115 -116.465669 136 9312ft 257kts
03-Jan-21 15:57 33.855049 -116.409385 136 7803ft 230kts
03-Jan-21 15:58 33.810611 -116.357955 136 6323ft 219kts
03-Jan-21 15:59 33.761864 -116.326330 206 4848ft 211kts
03-Jan-21 16:00 33.753843 -116.383438 297 3927ft 177kts
03-Jan-21 16:01 33.771430 -116.438101 284 2059ft 190kts
03-Jan-21 16:02 33.797815 -116.479509 325 959ft 138kts
03-Jan-21 16:03 33.824922 -116.503419 324 418ft 60kts
03-Jan-21 16:04 33.828739 -116.508075 249 438ft 0kts
03-Jan-21 16:05 33.828739 -116.508075 249 438ft 0kts
03-Jan-21 16:06 33.829295 -116.509486 321 441ft 10kts
03-Jan-21 16:07 33.831335 -116.512279 259 448ft 10kts
03-Jan-21 16:08 0.000000 0.000000 0 0ft 0kts
03-Jan-21 16:09 0.000408 0.013975 0 5ft 0kts
03-Jan-21 16:10 0.000408 0.013975 0 5ft 0kts
03-Jan-21 16:11 0.000408 0.013975 0 5ft 0kts
03-Jan-21 16:12 33.826297 -116.508733 88 428ft 0kts
03-Jan-21 16:13 33.826297 -116.508730 88 435ft 5kts
03-Jan-21 16:14 33.826297 -116.508722 89 435ft 0kts
03-Jan-21 16:15 33.826297 -116.508722 89 435ft 0kts

Navigation Log

Ident Type
Flight plan parsing failed, navigation log unavailable